AirNav   Air Wisconsin Up To $57,000 Bonus
 
 1314 users online  

1PS6 Aria Health-Torresdale Division Heliport
Philadelphia, Pennsylvania, USA

GOING TO PHILADELPHIA?


FAA INFORMATION EFFECTIVE 17 JUNE 2021

Location

FAA Identifier: 1PS6
Lat/Long: 40-04-10.7900N 074-58-56.6300W
40-04.179833N 074-58.943833W
40.0696639,-74.9823972
(estimated)
Elevation: 99 ft. / 30 m (estimated)
Variation: 12W (1980)
Time zone: UTC -4 (UTC -5 during Standard Time)
Zip code: 19114

Heliport Operations

Heliport use: Private use, MEDICAL USE.
Activation date: 12/1986
Control tower: no
ARTCC: NEW YORK CENTER
FSS: WILLIAMSPORT FLIGHT SERVICE STATION
Attendance: CONTINUOUS
Wind indicator: lighted
Segmented circle: no

Heliport Communications

UNICOM: 122.95
WX ASOS at PNE (1.5 nm NW): 121.15 (215-677-0146)
WX ASOS at VAY (10 nm SE): 119.325 (609-267-1176)
WX AWOS-3 at LOM (14 nm W): 118.925 (215-646-1068)
WX ASOS at TTN (15 nm NE): 126.775 (609-538-8690)
WX ASOS at PHL (17 nm SW): PHONE 215-492-9617
WX ASOS at DYL (17 nm N): 118.875 (215-345-0392)

Nearby radio navigation aids

VOR radial/distance  VOR name  Freq  Var
ARDr207/11.5YARDLEY VOR/DME108.2010W
GXUr294/18.1MC GUIRE VORTAC110.6012W
RBVr260/23.7ROBBINSVILLE VORTAC113.8010W
PTWr118/28.0POTTSTOWN VORTAC116.5009W
CYNr311/29.5COYLE VORTAC113.4010W
OODr040/29.9WOODSTOWN VORTAC112.8010W
VCNr009/31.9CEDAR LAKE VOR/DME115.2010W
SBJr210/32.7SOLBERG VOR/DME112.9010W
MXEr083/32.9MODENA VORTAC113.2009W
DQOr061/37.1DUPONT VORTAC114.0010W

 
NDB name  Hdg/Dist  Freq  Var  ID
AMBLER116/14.327512WING .. -. --.
LAKEHURST284/29.739611WNEL -. . .-..
RAINBOW021/39.736311WRNB .-. -. -...

Heliport Services

Runway Information

Helipad H1

Dimensions: 65 x 65 ft. / 20 x 20 m
Surface: asphalt
Runway edge lights: PERI
Latitude: 40-04.179833N
Longitude: 074-58.943833W
Elevation: 99.0 ft.
Traffic pattern: leftleft

Heliport Ownership and Management from official FAA records

Ownership: Privately-owned
Owner: 10800 KNIGHTS ROAD
10800 KNIGHTS ROAD
PHILADELPHIA, PA 19114
Phone 215-612-4000
Manager: DARRYL BEARD
10800 KNIGHTS ROAD
PHILADELPHIA, PA 19114
Phone 215-612-4000

Additional Remarks

FOR CD CTC PHILADELPHIA APCH AT 800-354-9884.
(CONTACT TITLE) OTR CTC JOHN.ARDENTE@JEFFERSON.EDU

Instrument Procedures

There are no published instrument procedures at 1PS6.

Some nearby airports with instrument procedures:

KPNE - Northeast Philadelphia Airport (1 nm NW)
KVAY - South Jersey Regional Airport (10 nm SE)
N14 - Flying W Airport (11 nm SE)
KLOM - Wings Field Airport (14 nm W)
KTTN - Trenton Mercer Airport (15 nm NE)
KPHL - Philadelphia International Airport (17 nm SW)
KDYL - Doylestown Airport (17 nm N)
19N - Camden County Airport (18 nm S)
KWRI - McGuire Field (Joint Base Mc Guire Dix Lakehurst) Airport (18 nm E)
N87 - Trenton-Robbinsville Airport (19 nm NE)
 
Loc | Ops | Rwys | IFR | FBO | Links
Com | Nav | Svcs | Stats | Notes
Area around 1PS6 (Aria Health-Torresdale Division Heliport)
 
Road maps at: MapQuest Bing Google
 
Aerial photo
No photo
 
Sectional chart

 
Airport distance calculator
Flying to Aria Health-Torresdale Division Heliport? Find the distance to fly.

From to 1PS6

Sunrise and sunset
Times for 17-Jun-2021
 Local
(UTC-4)
 Zulu
(UTC)
Morning civil twilight04:5808:58
Sunrise05:3109:31
Sunset20:3000:30
Evening civil twilight21:0301:03

Current date and time
Zulu (UTC)  18-Jun-2021 00:05:50
Local (UTC-4)  17-Jun-2021 20:05:50
 
METAR
KPNE 
2nm NW 
172354Z 29006KT 10SM CLR 23/04 A3001 RMK AO2 SLP160 T02280044 10256 20228 53005
KVAY 
11nm SE 
ASOS 119.325 609-267-1176
172354Z AUTO 29003KT 10SM CLR 24/04 A2999 RMK AO2 SLP155 T02440044 10261 20239 53006
KLOM 
14nm W 
172355Z AUTO 28003KT 10SM CLR 22/08 A3001 RMK AO2 T02190078 10251 20211 402510094
KTTN 
15nm NE 
ASOS 133.70 609-538-8690
172353Z 29004KT 10SM CLR 23/05 A2998 RMK AO2 SLP146 T02280050 10244 20228 53004
KPHL 
17nm SW 
172354Z 32008KT 10SM FEW250 24/06 A3000 RMK AO2 SLP159 T02440056 10256 20239 53006
KDYL 
17nm N 
172354Z AUTO 25003KT 10SM CLR 23/06 A2999 RMK AO2 SLP153 T02280061 10261 20228 53006
KWRI 
19nm E 
172356Z AUTO 22003KT 10SM CLR 23/06 A2998 RMK AO2 SLP151 T02280061 10252 20228 53004 $
TAF
KPNE 
2nm NW 
171724Z 1718/1818 32010KT P6SM SKC FM172300 VRB04KT P6SM SKC FM181500 23007KT P6SM FEW200
KTTN 
15nm NE 
171724Z 1718/1818 30010KT P6SM SKC FM172200 VRB04KT P6SM FEW200 FM181500 23006KT P6SM FEW200
KPHL 
17nm SW 
172057Z 1721/1824 31008KT P6SM FEW250 FM180000 VRB04KT P6SM SKC FM181500 23009KT P6SM SCT150 FM182100 19008KT P6SM SCT090
KWRI 
19nm E 
171800Z 1718/1824 32010G15KT 9999 SKC QNH2997INS BECMG 1722/1723 28006KT 9999 SKC QNH2999INS BECMG 1813/1814 21010G15KT 9999 SCT250 QNH2993INS BECMG 1821/1822 19009KT 9999 BKN120 QNH2992INS TX29/1818Z TN11/1809Z
NOTAMs
Click for the latest NOTAMs
NOTAMs are issued by the DoD/FAA and will open in a separate window not controlled by AirNav.

 

 
 

Would you like to see your business listed on this page?

 If your business provides an interesting product or service to pilots, flight crews, aircraft, or users of the Aria Health-Torresdale Division Heliport, you should consider listing it here.  To start the listing process, click on the button below
 
Add a business
 

Other Pages about Aria Health-Torresdale Division Heliport

Update a link
 
Copyright © AirNav, LLC. All rights reserved. Privacy Policy  Contact